createdAt,value
2019-03-24T00:00:54.496Z,65.10
2019-03-24T00:03:24.103Z,65.00
2019-03-24T00:05:53.694Z,65.10
2019-03-24T00:08:23.439Z,65.10
2019-03-24T00:10:53.318Z,65.20
2019-03-24T00:13:24.880Z,65.30
2019-03-24T00:15:54.331Z,65.30
2019-03-24T00:18:24.023Z,65.30
2019-03-24T00:20:54.685Z,65.30
2019-03-24T00:23:25.414Z,65.40
2019-03-24T00:25:56.064Z,65.50
2019-03-24T00:28:26.744Z,65.50
2019-03-24T00:31:01.982Z,65.50
2019-03-24T00:33:31.581Z,65.60
2019-03-24T00:36:01.210Z,65.70
2019-03-24T00:38:31.191Z,65.80
2019-03-24T00:41:00.784Z,65.80
2019-03-24T00:43:30.405Z,66.00
2019-03-24T00:46:00.317Z,66.00
2019-03-24T00:48:29.925Z,66.00
2019-03-24T00:50:59.942Z,65.90
2019-03-24T00:53:29.599Z,66.00
2019-03-24T00:55:59.237Z,66.20
2019-03-24T00:58:28.888Z,66.30
2019-03-24T01:00:58.496Z,66.30
2019-03-24T01:03:28.362Z,66.30
2019-03-24T01:05:58.032Z,66.20
2019-03-24T01:08:28.022Z,66.20
2019-03-24T01:10:57.649Z,66.30
2019-03-24T01:13:27.266Z,66.40
2019-03-24T01:15:56.877Z,66.50
2019-03-24T01:18:26.475Z,66.60
2019-03-24T01:20:56.407Z,66.60
2019-03-24T01:23:25.983Z,66.70
2019-03-24T01:25:55.764Z,66.60
2019-03-24T01:28:25.366Z,66.80
2019-03-24T01:30:54.989Z,66.80
2019-03-24T01:33:24.598Z,66.80
2019-03-24T01:35:54.187Z,66.90
2019-03-24T01:38:23.792Z,66.90
2019-03-24T01:40:53.560Z,66.80
2019-03-24T01:43:23.326Z,66.90
2019-03-24T01:45:58.430Z,66.90
2019-03-24T01:48:24.263Z,66.90
2019-03-24T01:50:53.952Z,67.00
2019-03-24T01:53:23.534Z,67.10
2019-03-24T01:55:53.129Z,67.20
2019-03-24T01:58:22.808Z,67.30
2019-03-24T02:00:52.763Z,67.40
2019-03-24T02:03:22.369Z,67.40
2019-03-24T02:05:51.979Z,67.50
2019-03-24T02:08:21.580Z,67.50
2019-03-24T02:10:51.187Z,67.60
2019-03-24T02:13:20.807Z,67.60
2019-03-24T02:15:50.410Z,67.60
2019-03-24T02:18:20.081Z,67.60
2019-03-24T02:20:49.824Z,67.70
2019-03-24T02:23:19.456Z,67.50
2019-03-24T02:25:49.336Z,67.70
2019-03-24T02:28:18.952Z,67.70
2019-03-24T02:30:48.641Z,67.70
2019-03-24T02:33:18.243Z,67.80
2019-03-24T02:35:47.950Z,67.80
2019-03-24T02:38:17.621Z,67.80
2019-03-24T02:40:47.303Z,67.60
2019-03-24T02:43:17.020Z,67.60
2019-03-24T02:45:46.908Z,67.70
2019-03-24T02:48:16.535Z,67.90
2019-03-24T02:50:46.132Z,67.90
2019-03-24T02:53:15.739Z,67.90
2019-03-24T02:55:45.372Z,67.90
2019-03-24T02:58:15.056Z,68.00
2019-03-24T03:00:44.730Z,68.10
2019-03-24T03:03:14.399Z,68.20
2019-03-24T03:05:44.011Z,68.30
2019-03-24T03:08:13.733Z,68.40
2019-03-24T03:10:43.324Z,68.50
2019-03-24T03:13:13.040Z,68.60
2019-03-24T03:15:42.656Z,68.50
2019-03-24T03:18:12.253Z,68.60
2019-03-24T03:20:42.244Z,68.60
2019-03-24T03:23:11.878Z,68.60
2019-03-24T03:25:41.756Z,68.70
2019-03-24T03:28:11.346Z,68.60
2019-03-24T03:30:41.224Z,68.60
2019-03-24T03:33:10.834Z,68.60
2019-03-24T03:35:40.473Z,68.70
2019-03-24T03:38:10.055Z,68.80
2019-03-24T03:40:39.730Z,68.80
2019-03-24T03:43:09.484Z,68.90
2019-03-24T03:45:39.558Z,68.90
2019-03-24T03:48:09.314Z,68.90
2019-03-24T03:50:39.203Z,68.90
2019-03-24T03:53:08.802Z,68.90
2019-03-24T03:55:38.401Z,68.90
2019-03-24T03:58:08.184Z,69.00
2019-03-24T04:00:38.455Z,69.00
2019-03-24T04:03:08.877Z,68.80
2019-03-24T04:05:38.491Z,68.80
2019-03-24T04:08:08.437Z,68.90
2019-03-24T04:10:38.377Z,68.90
2019-03-24T04:13:08.327Z,68.90
2019-03-24T04:15:38.062Z,68.90
2019-03-24T04:18:07.658Z,68.90
2019-03-24T04:20:37.269Z,68.90
2019-03-24T04:23:06.867Z,68.90
2019-03-24T04:25:36.540Z,68.90
2019-03-24T04:33:55.829Z,69.10
2019-03-24T04:36:25.425Z,69.10
2019-03-24T04:38:55.015Z,69.20
2019-03-24T04:41:24.721Z,69.20
2019-03-24T04:43:54.391Z,69.20
2019-03-24T04:46:24.017Z,69.40
2019-03-24T04:48:53.611Z,69.40
2019-03-24T04:51:23.471Z,69.60
2019-03-24T04:53:53.438Z,69.60
2019-03-24T04:56:23.100Z,69.50
2019-03-24T04:58:52.694Z,69.60
2019-03-24T05:01:22.348Z,69.40
2019-03-24T05:03:51.956Z,69.40
2019-03-24T05:06:21.991Z,69.40
2019-03-24T05:08:52.336Z,69.40
2019-03-24T05:11:22.326Z,69.40
2019-03-24T05:13:51.923Z,69.50
2019-03-24T05:16:21.538Z,69.60
2019-03-24T05:18:51.234Z,69.60
2019-03-24T05:21:20.820Z,69.70
2019-03-24T05:23:50.464Z,69.70
2019-03-24T05:26:20.179Z,69.70
2019-03-24T05:28:49.765Z,69.80
2019-03-24T05:31:19.494Z,69.90
2019-03-24T05:33:49.398Z,69.90
2019-03-24T05:36:19.062Z,69.90
2019-03-24T05:38:48.676Z,69.80
2019-03-24T05:41:18.282Z,69.80
2019-03-24T05:43:47.877Z,69.90
2019-03-24T05:46:17.494Z,70.00
2019-03-24T05:48:47.088Z,70.00
2019-03-24T05:51:16.771Z,70.00
2019-03-24T05:53:46.464Z,70.10
2019-03-24T05:56:16.060Z,70.20
2019-03-24T05:58:45.757Z,70.20
2019-03-24T06:01:15.384Z,70.20
2019-03-24T06:03:45.086Z,70.40
2019-03-24T06:06:14.690Z,70.60
2019-03-24T06:08:44.413Z,70.70
2019-03-24T06:11:14.019Z,70.90
2019-03-24T06:13:43.708Z,71.00
2019-03-24T06:16:13.326Z,71.20
2019-03-24T06:18:42.932Z,71.30
2019-03-24T06:21:12.789Z,71.30
2019-03-24T06:23:42.679Z,71.50
2019-03-24T06:26:12.295Z,71.60
2019-03-24T06:28:41.887Z,71.60
2019-03-24T06:31:11.498Z,71.60
2019-03-24T06:33:41.090Z,71.60
2019-03-24T06:36:10.708Z,71.70
2019-03-24T06:38:40.603Z,71.70
2019-03-24T06:41:10.218Z,71.80
2019-03-24T06:43:39.888Z,72.00
2019-03-24T06:46:09.661Z,72.20
2019-03-24T06:48:39.355Z,72.40
2019-03-24T06:51:08.953Z,72.70
2019-03-24T06:53:38.573Z,72.90
2019-03-24T06:56:08.185Z,73.10
2019-03-24T06:58:37.864Z,73.20
2019-03-24T07:01:07.487Z,73.30
2019-03-24T07:03:37.095Z,73.20
2019-03-24T07:06:06.785Z,73.20
2019-03-24T07:08:36.404Z,73.30
2019-03-24T07:11:13.218Z,73.40
2019-03-24T07:13:37.303Z,73.40
2019-03-24T07:16:06.905Z,73.40
2019-03-24T07:18:36.595Z,73.40
2019-03-24T07:21:06.257Z,73.60
2019-03-24T07:23:36.134Z,73.40
2019-03-24T07:26:05.728Z,73.40
2019-03-24T07:28:35.328Z,73.60
2019-03-24T07:31:05.262Z,73.50
2019-03-24T07:33:34.862Z,73.30
2019-03-24T07:36:05.503Z,73.30
2019-03-24T07:38:35.114Z,73.10
2019-03-24T07:41:04.854Z,72.70
2019-03-24T07:43:34.441Z,72.60
2019-03-24T07:46:04.037Z,72.40
2019-03-24T07:48:34.624Z,72.20
2019-03-24T07:51:04.288Z,72.30
2019-03-24T07:53:33.909Z,71.70
2019-03-24T07:56:03.518Z,71.70
2019-03-24T07:58:33.117Z,71.10
2019-03-24T08:01:02.739Z,70.70
2019-03-24T08:03:32.360Z,70.40
2019-03-24T08:06:01.977Z,69.90
2019-03-24T08:08:31.595Z,69.50
2019-03-24T08:11:01.195Z,68.90
2019-03-24T08:13:30.821Z,68.50
2019-03-24T08:16:00.419Z,68.20
2019-03-24T08:18:30.412Z,68.10
2019-03-24T08:20:59.975Z,67.70
2019-03-24T08:23:29.855Z,67.90
2019-03-24T08:25:59.476Z,67.40
2019-03-24T08:28:29.093Z,67.20
2019-03-24T08:30:58.705Z,66.90
2019-03-24T08:33:28.361Z,66.50
2019-03-24T08:35:57.911Z,67.20
2019-03-24T08:38:27.550Z,66.20
2019-03-24T08:40:57.409Z,65.90
2019-03-24T08:43:27.484Z,65.60
2019-03-24T08:46:03.042Z,65.30
2019-03-24T08:48:40.333Z,65.00
2019-03-24T08:51:04.072Z,64.60
2019-03-24T08:53:33.960Z,64.60
2019-03-24T08:56:03.583Z,64.50
2019-03-24T08:58:33.171Z,64.10
2019-03-24T09:01:02.880Z,63.90
2019-03-24T09:03:32.800Z,63.50
2019-03-24T09:06:02.716Z,62.90
2019-03-24T09:08:32.352Z,62.50
2019-03-24T09:11:02.218Z,62.40
2019-03-24T09:13:31.839Z,62.00
2019-03-24T09:16:01.725Z,61.80
2019-03-24T09:18:31.339Z,61.10
2019-03-24T09:21:00.974Z,60.60
2019-03-24T09:23:30.591Z,60.60
2019-03-24T09:26:00.213Z,60.60
2019-03-24T09:28:30.128Z,60.60
2019-03-24T09:31:00.006Z,60.40
2019-03-24T09:33:29.608Z,59.70
2019-03-24T09:35:59.226Z,59.60
2019-03-24T09:38:29.106Z,59.20
2019-03-24T09:40:58.775Z,58.70
2019-03-24T09:43:28.661Z,59.20
2019-03-24T09:45:58.283Z,57.90
2019-03-24T09:48:28.555Z,57.30
2019-03-24T09:50:58.510Z,57.20
2019-03-24T09:53:28.481Z,57.10
2019-03-24T09:55:58.114Z,57.00
2019-03-24T09:58:27.816Z,56.60
2019-03-24T10:00:57.692Z,56.80
2019-03-24T10:03:27.304Z,57.30
2019-03-24T10:05:58.205Z,56.40
2019-03-24T10:08:27.796Z,56.20
2019-03-24T10:10:57.492Z,56.10
2019-03-24T10:13:27.209Z,56.70
2019-03-24T10:15:56.895Z,56.10
2019-03-24T10:18:28.773Z,56.10
2019-03-24T10:20:58.380Z,55.30
2019-03-24T10:23:28.364Z,55.30
2019-03-24T10:25:57.969Z,55.50
2019-03-24T10:28:27.610Z,55.20
2019-03-24T10:30:57.245Z,55.00
2019-03-24T10:33:26.886Z,54.10
2019-03-24T10:35:56.502Z,54.00
2019-03-24T10:38:26.128Z,54.10
2019-03-24T10:40:55.738Z,54.20
2019-03-24T10:43:25.380Z,54.50
2019-03-24T10:45:54.986Z,54.30
2019-03-24T10:48:33.322Z,54.30
2019-03-24T10:50:56.250Z,54.40
2019-03-24T10:53:27.394Z,54.50
2019-03-24T10:55:57.079Z,54.30
2019-03-24T10:58:26.710Z,54.30
2019-03-24T11:00:56.594Z,54.10
2019-03-24T11:03:26.295Z,54.10
2019-03-24T11:05:55.976Z,52.90
2019-03-24T11:08:25.591Z,52.70
2019-03-24T11:10:55.203Z,52.20
2019-03-24T11:13:24.838Z,52.80
2019-03-24T11:15:54.713Z,51.90
2019-03-24T11:18:24.340Z,51.30
2019-03-24T11:20:53.944Z,51.00
2019-03-24T11:23:23.588Z,51.20
2019-03-24T11:25:53.561Z,51.00
2019-03-24T11:28:23.239Z,51.50
2019-03-24T11:30:52.831Z,51.10
2019-03-24T11:33:22.466Z,51.80
2019-03-24T11:35:52.103Z,52.30
2019-03-24T11:38:21.722Z,51.60
2019-03-24T11:40:52.304Z,51.70
2019-03-24T11:43:21.917Z,51.90
2019-03-24T11:45:51.593Z,52.00
2019-03-24T11:48:22.951Z,52.10
2019-03-24T11:50:52.882Z,52.20
2019-03-24T11:53:22.516Z,52.40
2019-03-24T11:55:52.158Z,52.70
2019-03-24T11:58:21.773Z,52.80
2019-03-24T12:00:51.481Z,53.00
2019-03-24T12:03:21.085Z,53.20
2019-03-24T12:05:50.799Z,53.30
2019-03-24T12:08:20.442Z,53.40
2019-03-24T12:10:50.064Z,53.40
2019-03-24T12:13:19.671Z,52.70
2019-03-24T12:15:49.509Z,52.70
2019-03-24T12:18:19.366Z,52.70
2019-03-24T12:20:48.993Z,52.30
2019-03-24T12:23:20.949Z,51.90
2019-03-24T12:25:50.012Z,51.60
2019-03-24T12:28:19.900Z,51.30
2019-03-24T12:30:49.626Z,51.30
2019-03-24T12:33:19.214Z,51.00
2019-03-24T12:35:48.850Z,50.50
2019-03-24T12:38:19.649Z,50.70
2019-03-24T12:40:49.302Z,51.50
2019-03-24T12:43:19.969Z,51.70
2019-03-24T12:45:50.026Z,51.50
2019-03-24T12:48:19.793Z,51.30
2019-03-24T12:50:49.461Z,50.70
2019-03-24T12:53:19.093Z,51.30
2019-03-24T12:55:49.000Z,51.50
2019-03-24T12:58:18.872Z,51.50
2019-03-24T13:00:48.504Z,51.60
2019-03-24T13:03:18.112Z,51.50
2019-03-24T13:05:48.046Z,52.00
2019-03-24T13:08:18.364Z,52.30
2019-03-24T13:10:48.174Z,51.80
2019-03-24T13:13:17.945Z,51.50
2019-03-24T13:15:47.722Z,51.50
2019-03-24T13:18:17.404Z,52.10
2019-03-24T13:20:47.035Z,52.30
2019-03-24T13:23:16.791Z,52.10
2019-03-24T13:25:46.455Z,52.40
2019-03-24T13:28:16.170Z,52.70
2019-03-24T13:30:45.858Z,52.20
2019-03-24T13:33:15.647Z,51.80
2019-03-24T13:35:45.287Z,52.10
2019-03-24T13:38:15.010Z,52.30
2019-03-24T13:40:44.619Z,52.20
2019-03-24T13:43:14.228Z,51.30
2019-03-24T13:45:43.932Z,51.70
2019-03-24T13:48:13.578Z,51.70
2019-03-24T13:50:43.201Z,51.20
2019-03-24T13:53:12.922Z,51.30
2019-03-24T13:55:45.427Z,52.00
2019-03-24T13:58:15.381Z,52.20
2019-03-24T14:00:45.252Z,52.50
2019-03-24T14:03:14.903Z,52.40
2019-03-24T14:05:44.515Z,52.70
2019-03-24T14:08:18.540Z,52.70
2019-03-24T14:10:48.405Z,52.90
2019-03-24T14:13:18.364Z,52.90
2019-03-24T14:15:50.438Z,52.80
2019-03-24T14:18:20.040Z,52.90
2019-03-24T14:20:49.679Z,52.80
2019-03-24T14:23:19.322Z,52.50
2019-03-24T14:25:49.253Z,52.70
2019-03-24T14:28:18.907Z,52.50
2019-03-24T14:30:49.773Z,52.80
2019-03-24T14:33:19.883Z,52.40
2019-03-24T14:35:50.780Z,52.70
2019-03-24T14:38:21.273Z,52.50
2019-03-24T14:40:51.283Z,52.50
2019-03-24T14:43:20.968Z,52.30
2019-03-24T14:45:50.582Z,52.70
2019-03-24T14:48:20.214Z,52.30
2019-03-24T14:50:54.391Z,52.30
2019-03-24T14:53:21.185Z,51.40
2019-03-24T14:55:50.815Z,51.70
2019-03-24T14:58:20.655Z,51.80
2019-03-24T15:00:50.594Z,51.80
2019-03-24T15:03:20.558Z,51.60
2019-03-24T15:05:50.245Z,51.10
2019-03-24T15:08:19.866Z,51.10
2019-03-24T15:10:49.510Z,50.70
2019-03-24T15:13:19.393Z,50.90
2019-03-24T15:15:49.021Z,50.60
2019-03-24T15:18:18.657Z,50.90
2019-03-24T15:20:48.262Z,50.40
2019-03-24T15:23:17.879Z,50.30
2019-03-24T15:25:48.414Z,50.10
2019-03-24T15:28:18.016Z,50.10
2019-03-24T15:30:47.632Z,50.00
2019-03-24T15:33:17.263Z,50.30
2019-03-24T15:35:47.150Z,49.90
2019-03-24T15:38:16.793Z,49.70
2019-03-24T15:40:49.474Z,49.80
2019-03-24T15:43:18.048Z,49.70
2019-03-24T15:45:47.731Z,49.60
2019-03-24T15:48:17.371Z,49.30
2019-03-24T15:50:47.134Z,49.10
2019-03-24T15:53:17.012Z,49.20
2019-03-24T15:55:46.629Z,49.20
2019-03-24T15:58:16.515Z,48.60
2019-03-24T16:00:48.371Z,48.40
2019-03-24T16:03:18.111Z,48.30
2019-03-24T16:05:47.821Z,48.80
2019-03-24T16:08:17.501Z,48.70
2019-03-24T16:10:47.143Z,48.90
2019-03-24T16:13:16.937Z,49.00
2019-03-24T16:15:46.566Z,49.00
2019-03-24T16:18:16.274Z,48.80
2019-03-24T16:20:45.884Z,49.00
2019-03-24T16:23:15.509Z,49.00
2019-03-24T16:25:45.128Z,48.60
2019-03-24T16:28:14.738Z,48.80
2019-03-24T16:30:44.423Z,48.50
2019-03-24T16:33:14.066Z,48.40
2019-03-24T16:35:43.695Z,48.50
2019-03-24T16:38:13.292Z,48.70
2019-03-24T16:40:42.913Z,48.90
2019-03-24T16:43:12.557Z,48.90
2019-03-24T16:45:42.171Z,49.10
2019-03-24T16:48:11.870Z,49.00
2019-03-24T16:50:41.489Z,48.90
2019-03-24T16:53:11.300Z,49.20
2019-03-24T16:55:41.235Z,49.20
2019-03-24T16:58:11.149Z,49.20
2019-03-24T17:00:40.798Z,48.80
2019-03-24T17:03:10.396Z,49.00
2019-03-24T17:05:39.995Z,48.80
2019-03-24T17:08:09.624Z,48.90
2019-03-24T17:10:39.325Z,49.20
2019-03-24T17:13:10.916Z,49.10
2019-03-24T17:15:40.847Z,49.00
2019-03-24T17:18:10.472Z,49.00
2019-03-24T17:20:40.088Z,49.00
2019-03-24T17:23:09.716Z,49.30
2019-03-24T17:25:39.603Z,49.50
2019-03-24T17:28:09.204Z,49.70
2019-03-24T17:30:39.125Z,49.80
2019-03-24T17:33:08.763Z,49.80
2019-03-24T17:35:38.377Z,50.00
2019-03-24T17:38:08.144Z,50.30
2019-03-24T17:40:39.131Z,50.50
2019-03-24T17:43:08.873Z,50.60
2019-03-24T17:45:38.461Z,50.80
2019-03-24T17:48:08.154Z,50.90
2019-03-24T17:50:37.775Z,51.00
2019-03-24T17:53:07.605Z,51.00
2019-03-24T17:55:37.242Z,51.20
2019-03-24T17:58:06.917Z,51.40
2019-03-24T18:00:46.373Z,51.60
2019-03-24T18:03:16.159Z,51.80
2019-03-24T18:05:45.902Z,52.00
2019-03-24T18:08:16.100Z,52.20
2019-03-24T18:10:45.696Z,52.30
2019-03-24T18:13:15.337Z,52.50
2019-03-24T18:15:44.950Z,52.70
2019-03-24T18:18:14.545Z,52.70
2019-03-24T18:20:44.164Z,52.90
2019-03-24T18:23:13.897Z,53.10
2019-03-24T18:25:43.504Z,53.20
2019-03-24T18:28:16.135Z,53.40
2019-03-24T18:30:46.053Z,53.50
2019-03-24T18:33:15.966Z,53.60
2019-03-24T18:35:45.736Z,53.80
2019-03-24T18:38:15.396Z,54.00
2019-03-24T18:40:45.011Z,54.10
2019-03-24T18:43:14.647Z,54.20
2019-03-24T18:45:44.377Z,54.30
2019-03-24T18:48:14.337Z,55.00
2019-03-24T18:50:43.938Z,54.50
2019-03-24T18:53:13.561Z,54.70
2019-03-24T18:55:43.172Z,54.80
2019-03-24T18:58:12.868Z,54.90
2019-03-24T19:00:42.487Z,54.90
2019-03-24T19:03:12.212Z,55.00
2019-03-24T19:05:41.877Z,55.10
2019-03-24T19:08:11.499Z,55.10
2019-03-24T19:10:41.109Z,55.30
2019-03-24T19:13:10.718Z,55.40
2019-03-24T19:15:40.356Z,55.60
2019-03-24T19:18:10.035Z,55.60
2019-03-24T19:20:39.645Z,55.70
2019-03-24T19:23:09.282Z,55.80
2019-03-24T19:25:38.871Z,55.90
2019-03-24T19:28:08.777Z,56.00
2019-03-24T19:30:40.395Z,56.20
2019-03-24T19:33:10.290Z,56.20
2019-03-24T19:35:40.155Z,56.30
2019-03-24T19:38:09.892Z,56.40
2019-03-24T19:40:39.961Z,56.50
2019-03-24T19:43:09.572Z,56.60
2019-03-24T19:45:39.177Z,56.60
2019-03-24T19:48:10.494Z,56.60
2019-03-24T19:50:40.372Z,56.70
2019-03-24T19:53:11.177Z,56.80
2019-03-24T19:55:41.128Z,57.00
2019-03-24T19:58:10.734Z,57.00
2019-03-24T20:00:40.907Z,57.10
2019-03-24T20:03:11.623Z,57.20
2019-03-24T20:05:41.344Z,57.30
2019-03-24T20:08:11.384Z,57.30
2019-03-24T20:10:41.202Z,57.40
2019-03-24T20:13:11.203Z,57.50
2019-03-24T20:15:41.169Z,57.60
2019-03-24T20:18:11.057Z,57.70
2019-03-24T20:20:40.719Z,57.80
2019-03-24T20:23:10.397Z,57.90
2019-03-24T20:25:40.121Z,57.90
2019-03-24T20:28:09.722Z,57.90
2019-03-24T20:30:39.802Z,58.00
2019-03-24T20:33:10.969Z,58.10
2019-03-24T20:35:40.674Z,58.20
2019-03-24T20:38:10.350Z,58.20
2019-03-24T20:40:41.598Z,58.30
2019-03-24T20:43:11.274Z,58.30
2019-03-24T20:45:40.939Z,58.30
2019-03-24T20:48:10.540Z,58.50
2019-03-24T20:50:40.476Z,58.40
2019-03-24T20:53:18.162Z,58.50
2019-03-24T20:55:42.199Z,58.60
2019-03-24T20:58:11.815Z,58.50
2019-03-24T21:00:41.663Z,58.60
2019-03-24T21:03:11.511Z,58.70
2019-03-24T21:05:41.601Z,58.80
2019-03-24T21:08:11.532Z,58.80
2019-03-24T21:10:41.195Z,58.90
2019-03-24T21:13:10.837Z,58.90
2019-03-24T21:15:40.878Z,59.00
2019-03-24T21:18:10.522Z,59.10
2019-03-24T21:20:40.108Z,59.20
2019-03-24T21:23:10.009Z,59.20
2019-03-24T21:25:39.609Z,59.30
2019-03-24T21:28:09.274Z,59.40
2019-03-24T21:30:41.241Z,59.40
2019-03-24T21:33:10.911Z,59.60
2019-03-24T21:35:40.608Z,59.50
2019-03-24T21:38:10.247Z,59.50
2019-03-24T21:40:39.817Z,59.70
2019-03-24T21:43:09.524Z,59.80
2019-03-24T21:45:39.144Z,60.00
2019-03-24T21:48:08.821Z,60.10
2019-03-24T21:50:38.487Z,60.20
2019-03-24T21:53:08.093Z,60.40
2019-03-24T21:55:37.984Z,60.50
2019-03-24T21:58:07.588Z,60.50
2019-03-24T22:00:37.938Z,60.70
2019-03-24T22:03:08.120Z,60.90
2019-03-24T22:05:38.085Z,60.90
2019-03-24T22:08:07.867Z,61.00
2019-03-24T22:10:37.819Z,61.20
2019-03-24T22:13:07.720Z,61.30
2019-03-24T22:15:37.435Z,61.50
2019-03-24T22:18:08.640Z,61.50
2019-03-24T22:20:48.449Z,61.90
2019-03-24T22:23:09.557Z,62.70
2019-03-24T22:25:39.197Z,62.10
2019-03-24T22:28:22.475Z,62.20
2019-03-24T22:30:51.394Z,62.50
2019-03-24T22:33:20.947Z,62.50
2019-03-24T22:35:50.894Z,62.70
2019-03-24T22:38:20.617Z,62.80
2019-03-24T22:40:50.286Z,62.80
2019-03-24T22:43:19.904Z,62.90
2019-03-24T22:45:49.535Z,62.90
2019-03-24T22:48:19.140Z,62.90
2019-03-24T22:50:49.057Z,62.90
2019-03-24T22:53:18.670Z,63.00
2019-03-24T22:55:48.674Z,62.80
2019-03-24T22:58:18.281Z,62.90
2019-03-24T23:00:49.921Z,62.70
2019-03-24T23:03:19.537Z,62.50
2019-03-24T23:05:49.215Z,62.30
2019-03-24T23:08:18.852Z,62.10
2019-03-24T23:10:48.530Z,61.80
2019-03-24T23:13:18.238Z,61.60
2019-03-24T23:15:51.618Z,61.20
2019-03-24T23:18:21.513Z,61.00
2019-03-24T23:20:51.147Z,60.80
2019-03-24T23:23:20.955Z,60.50
2019-03-24T23:25:50.986Z,60.10
2019-03-24T23:28:20.872Z,59.90
2019-03-24T23:30:50.580Z,59.50
2019-03-24T23:33:20.251Z,59.20
2019-03-24T23:35:49.938Z,58.90
2019-03-24T23:38:19.653Z,58.70
2019-03-24T23:40:49.250Z,58.50
2019-03-24T23:43:18.954Z,58.30
2019-03-24T23:45:48.647Z,58.20
2019-03-24T23:48:18.247Z,58.20
2019-03-24T23:50:48.269Z,58.10
2019-03-24T23:53:18.140Z,57.90
2019-03-24T23:55:47.943Z,57.70
2019-03-24T23:58:17.666Z,57.60
